createdAt,value
2024-01-01T00:01:42.088Z,6.78
2024-01-01T00:04:09.698Z,6.76
2024-01-01T00:06:36.189Z,6.66
2024-01-01T00:09:02.995Z,6.68
2024-01-01T00:11:29.524Z,6.63
2024-01-01T00:13:56.133Z,6.64
2024-01-01T00:16:22.624Z,6.58
2024-01-01T00:18:49.357Z,6.50
2024-01-01T00:21:15.961Z,6.56
2024-01-01T00:23:44.586Z,6.60
2024-01-01T00:26:11.496Z,6.52
2024-01-01T00:28:38.026Z,6.56
2024-01-01T00:31:04.789Z,6.47
2024-01-01T00:33:31.304Z,6.64
2024-01-01T00:35:57.987Z,6.51
2024-01-01T00:38:24.471Z,6.59
2024-01-01T00:40:51.034Z,6.49
2024-01-01T00:43:17.539Z,6.53
2024-01-01T00:45:49.340Z,6.34
2024-01-01T00:48:17.310Z,6.41
2024-01-01T00:50:45.728Z,6.45
2024-01-01T00:53:12.699Z,6.39
2024-01-01T00:55:39.348Z,6.25
2024-01-01T00:58:08.053Z,6.31
2024-01-01T01:00:35.510Z,6.19
2024-01-01T01:03:02.194Z,6.15
2024-01-01T01:05:28.893Z,6.18
2024-01-01T01:07:55.556Z,6.17
2024-01-01T01:10:22.032Z,6.13
2024-01-01T01:12:48.521Z,6.11
2024-01-01T01:15:15.199Z,6.07
2024-01-01T01:17:41.819Z,5.88
2024-01-01T01:20:09.030Z,5.91
2024-01-01T01:22:35.679Z,5.97
2024-01-01T01:25:02.210Z,5.97
2024-01-01T01:27:28.687Z,5.91
2024-01-01T01:29:55.160Z,5.73
2024-01-01T01:32:21.641Z,5.98
2024-01-01T01:34:48.282Z,5.95
2024-01-01T01:37:14.855Z,5.95
2024-01-01T01:39:41.473Z,5.81
2024-01-01T01:42:11.041Z,5.88
2024-01-01T01:44:37.575Z,5.83
2024-01-01T01:47:04.515Z,5.73
2024-01-01T01:49:32.427Z,5.75
2024-01-01T01:52:02.012Z,5.74
2024-01-01T01:54:31.091Z,5.57
2024-01-01T01:56:57.678Z,5.68
2024-01-01T01:59:24.195Z,5.57
2024-01-01T02:01:51.320Z,5.64
2024-01-01T02:04:18.102Z,5.47
2024-01-01T02:06:46.386Z,5.45
2024-01-01T02:09:13.268Z,5.27
2024-01-01T02:11:39.873Z,5.39
2024-01-01T02:14:16.225Z,5.20
2024-01-01T02:16:43.092Z,5.27
2024-01-01T02:19:24.929Z,5.31
2024-01-01T02:21:53.133Z,5.36
2024-01-01T02:24:21.835Z,5.30
2024-01-01T02:26:49.259Z,5.25
2024-01-01T02:29:16.806Z,5.11
2024-01-01T02:31:43.635Z,5.28
2024-01-01T02:34:10.222Z,5.08
2024-01-01T02:36:38.604Z,5.23
2024-01-01T02:39:06.741Z,5.30
2024-01-01T02:41:34.523Z,5.19
2024-01-01T02:44:01.761Z,5.28
2024-01-01T02:46:28.302Z,5.34
2024-01-01T02:48:54.876Z,5.36
2024-01-01T02:51:21.414Z,5.22
2024-01-01T02:53:47.922Z,5.22
2024-01-01T02:56:21.697Z,5.25
2024-01-01T02:58:48.703Z,5.28
2024-01-01T03:01:15.304Z,5.14
2024-01-01T03:03:41.881Z,5.14
2024-01-01T03:06:08.522Z,5.20
2024-01-01T03:08:39.467Z,5.14
2024-01-01T03:11:06.225Z,5.16
2024-01-01T03:13:33.195Z,5.14
2024-01-01T03:16:00.934Z,5.13
2024-01-01T03:18:27.714Z,5.08
2024-01-01T03:20:54.159Z,5.04
2024-01-01T03:23:21.039Z,5.15
2024-01-01T03:25:47.947Z,5.05
2024-01-01T03:28:14.468Z,4.95
2024-01-01T03:30:40.985Z,4.93
2024-01-01T03:33:07.906Z,5.01
2024-01-01T03:35:34.477Z,5.03
2024-01-01T03:38:01.633Z,4.85
2024-01-01T03:40:28.295Z,4.85
2024-01-01T03:42:54.802Z,4.89
2024-01-01T03:45:21.505Z,4.91
2024-01-01T03:47:48.209Z,4.91
2024-01-01T03:50:17.867Z,4.91
2024-01-01T03:52:44.441Z,4.89
2024-01-01T03:55:11.223Z,4.96
2024-01-01T03:57:37.768Z,4.94
2024-01-01T04:00:07.953Z,4.93
2024-01-01T04:02:35.451Z,4.81
2024-01-01T04:05:02.046Z,5.01
2024-01-01T04:07:28.644Z,5.09
2024-01-01T04:09:55.085Z,5.13
2024-01-01T04:12:21.613Z,5.19
2024-01-01T04:14:48.260Z,5.16
2024-01-01T04:17:14.922Z,5.10
2024-01-01T04:19:45.812Z,5.21
2024-01-01T04:22:13.389Z,5.25
2024-01-01T04:24:40.436Z,5.08
2024-01-01T04:27:06.907Z,5.23
2024-01-01T04:29:33.458Z,5.28
2024-01-01T04:32:02.574Z,5.34
2024-01-01T04:34:29.045Z,5.40
2024-01-01T04:36:55.733Z,5.33
2024-01-01T04:39:22.183Z,5.52
2024-01-01T04:41:48.682Z,5.44
2024-01-01T04:44:15.251Z,5.60
2024-01-01T04:46:41.829Z,5.61
2024-01-01T04:49:08.424Z,5.79
2024-01-01T04:51:34.908Z,5.66
2024-01-01T04:54:01.459Z,5.87
2024-01-01T04:56:27.940Z,5.90
2024-01-01T04:58:57.493Z,5.87
2024-01-01T05:01:24.040Z,5.76
2024-01-01T05:03:50.569Z,5.92
2024-01-01T05:06:18.781Z,6.02
2024-01-01T05:08:45.585Z,6.04
2024-01-01T05:11:12.061Z,6.09
2024-01-01T05:13:38.669Z,6.12
2024-01-01T05:16:10.655Z,6.10
2024-01-01T05:18:37.161Z,5.95
2024-01-01T05:21:04.038Z,5.90
2024-01-01T05:23:30.467Z,6.07
2024-01-01T05:25:56.954Z,6.05
2024-01-01T05:28:24.188Z,6.00
2024-01-01T05:30:50.818Z,6.13
2024-01-01T05:33:17.356Z,6.15
2024-01-01T05:35:44.040Z,6.12
2024-01-01T05:38:10.544Z,6.22
2024-01-01T05:40:39.975Z,6.26
2024-01-01T05:43:06.668Z,6.31
2024-01-01T05:45:33.157Z,6.30
2024-01-01T05:48:00.471Z,6.21
2024-01-01T05:50:28.323Z,6.31
2024-01-01T05:52:55.264Z,6.32
2024-01-01T05:55:21.819Z,6.39
2024-01-01T05:57:48.244Z,6.35
2024-01-01T06:00:15.283Z,6.33
2024-01-01T06:02:41.772Z,6.28
2024-01-01T06:05:08.366Z,6.39
2024-01-01T06:07:35.019Z,6.39
2024-01-01T06:10:01.571Z,6.34
2024-01-01T06:12:28.107Z,6.43
2024-01-01T06:14:55.198Z,6.45
2024-01-01T06:17:21.801Z,6.48
2024-01-01T06:19:50.184Z,6.49
2024-01-01T06:22:16.816Z,6.49
2024-01-01T06:24:43.380Z,6.51
2024-01-01T06:27:09.861Z,6.60
2024-01-01T06:29:37.827Z,6.62
2024-01-01T06:32:04.601Z,6.64
2024-01-01T06:34:31.092Z,6.61
2024-01-01T06:36:57.623Z,6.53
2024-01-01T06:39:24.103Z,6.52
2024-01-01T06:41:50.601Z,6.53
2024-01-01T06:44:17.180Z,6.46
2024-01-01T06:46:43.813Z,6.40
2024-01-01T06:49:10.412Z,6.44
2024-01-01T06:51:37.155Z,6.36
2024-01-01T06:54:03.722Z,6.34
2024-01-01T06:56:30.195Z,6.27
2024-01-01T06:58:56.763Z,6.21
2024-01-01T07:01:23.351Z,6.23
2024-01-01T07:03:49.997Z,6.16
2024-01-01T07:06:16.572Z,6.12
2024-01-01T07:08:43.099Z,6.04
2024-01-01T07:11:09.694Z,5.98
2024-01-01T07:13:36.923Z,5.94
2024-01-01T07:16:03.706Z,6.01
2024-01-01T07:18:30.331Z,6.02
2024-01-01T07:20:57.646Z,6.18
2024-01-01T07:23:24.356Z,6.30
2024-01-01T07:25:52.095Z,6.33
2024-01-01T07:28:18.773Z,6.42
2024-01-01T07:30:45.307Z,6.48
2024-01-01T07:33:11.905Z,6.47
2024-01-01T07:35:38.496Z,6.55
2024-01-01T07:38:05.466Z,6.58
2024-01-01T07:40:32.124Z,6.60
2024-01-01T07:42:58.546Z,6.68
2024-01-01T07:45:25.106Z,6.71
2024-01-01T07:47:51.870Z,6.63
2024-01-01T07:50:21.902Z,6.66
2024-01-01T07:52:49.289Z,6.83
2024-01-01T07:55:15.899Z,6.81
2024-01-01T07:57:42.433Z,6.71
2024-01-01T08:00:11.215Z,6.87
2024-01-01T08:02:38.174Z,6.87
2024-01-01T08:05:05.909Z,6.87
2024-01-01T08:07:34.847Z,6.86
2024-01-01T08:10:01.393Z,6.79
2024-01-01T08:12:28.056Z,6.95
2024-01-01T08:14:54.844Z,6.86
2024-01-01T08:17:21.327Z,7.06
2024-01-01T08:19:47.980Z,7.05
2024-01-01T08:22:14.519Z,6.89
2024-01-01T08:24:40.995Z,7.14
2024-01-01T08:27:07.905Z,7.12
2024-01-01T08:29:36.483Z,7.09
2024-01-01T08:32:03.620Z,7.14
2024-01-01T08:34:33.012Z,7.17
2024-01-01T08:37:03.484Z,7.07
2024-01-01T08:39:29.844Z,7.24
2024-01-01T08:41:56.408Z,7.18
2024-01-01T08:44:23.018Z,7.19
2024-01-01T08:46:49.650Z,7.21
2024-01-01T08:49:16.339Z,7.16
2024-01-01T08:51:42.894Z,7.03
2024-01-01T08:54:09.479Z,7.20
2024-01-01T08:56:36.069Z,7.18
2024-01-01T08:59:02.664Z,7.14
2024-01-01T09:01:29.285Z,7.04
2024-01-01T09:03:57.742Z,7.19
2024-01-01T09:06:24.739Z,6.97
2024-01-01T09:08:51.249Z,7.08
2024-01-01T09:11:17.805Z,6.97
2024-01-01T09:13:44.464Z,7.10
2024-01-01T09:16:10.912Z,6.90
2024-01-01T09:18:39.145Z,6.90
2024-01-01T09:21:05.984Z,7.02
2024-01-01T09:23:32.452Z,7.03
2024-01-01T09:25:59.547Z,7.24
2024-01-01T09:28:26.256Z,7.23
2024-01-01T09:30:52.886Z,7.23
2024-01-01T09:33:20.000Z,7.36
2024-01-01T09:35:48.096Z,7.39
2024-01-01T09:38:17.380Z,7.46
2024-01-01T09:40:44.552Z,7.23
2024-01-01T09:43:21.755Z,7.50
2024-01-01T09:45:49.307Z,7.39
2024-01-01T09:48:16.470Z,7.59
2024-01-01T09:50:44.319Z,7.60
2024-01-01T09:53:12.126Z,7.54
2024-01-01T09:55:39.780Z,7.63
2024-01-01T09:58:06.479Z,7.39
2024-01-01T10:00:33.324Z,7.46
2024-01-01T10:03:11.677Z,7.35
2024-01-01T10:05:43.006Z,7.56
2024-01-01T10:08:11.225Z,7.42
2024-01-01T10:10:42.124Z,7.55
2024-01-01T10:13:13.680Z,7.43
2024-01-01T10:15:42.396Z,7.38
2024-01-01T10:18:18.090Z,7.62
2024-01-01T10:20:45.526Z,7.86
2024-01-01T10:23:21.162Z,7.79
2024-01-01T10:25:51.005Z,7.82
2024-01-01T10:28:17.939Z,7.69
2024-01-01T10:30:47.985Z,7.83
2024-01-01T10:33:18.922Z,7.64
2024-01-01T10:35:45.892Z,7.86
2024-01-01T10:38:15.416Z,7.89
2024-01-01T10:40:42.572Z,7.91
2024-01-01T10:43:10.001Z,7.98
2024-01-01T10:45:36.705Z,7.80
2024-01-01T10:48:07.001Z,8.05
2024-01-01T10:50:36.974Z,8.03
2024-01-01T10:53:18.203Z,8.11
2024-01-01T10:55:47.612Z,8.15
2024-01-01T10:58:38.998Z,8.39
2024-01-01T11:01:08.398Z,8.03
2024-01-01T11:03:36.462Z,8.05
2024-01-01T11:06:26.009Z,8.19
2024-01-01T11:08:52.659Z,8.45
2024-01-01T11:11:26.648Z,8.35
2024-01-01T11:13:54.754Z,8.44
2024-01-01T11:16:21.972Z,8.15
2024-01-01T11:18:50.552Z,8.19
2024-01-01T11:21:32.054Z,8.22
2024-01-01T11:26:35.943Z,8.17
2024-01-01T11:29:04.788Z,8.36
2024-01-01T11:31:33.209Z,8.65
2024-01-01T11:34:18.395Z,9.05
2024-01-01T11:36:53.740Z,8.85
2024-01-01T11:39:25.931Z,8.35
2024-01-01T11:41:52.728Z,8.35
2024-01-01T11:44:19.986Z,8.49
2024-01-01T11:46:47.511Z,8.50
2024-01-01T11:49:14.296Z,8.47
2024-01-01T11:51:56.567Z,8.71
2024-01-01T11:54:26.603Z,8.65
2024-01-01T11:56:58.781Z,8.74
2024-01-01T11:59:28.602Z,8.36
2024-01-01T12:01:55.546Z,8.43
2024-01-01T12:04:22.560Z,8.42
2024-01-01T12:06:53.130Z,8.69
2024-01-01T12:09:22.102Z,8.32
2024-01-01T12:11:49.138Z,8.06
2024-01-01T12:14:16.069Z,7.91
2024-01-01T12:16:44.093Z,8.11
2024-01-01T12:19:11.224Z,8.11
2024-01-01T12:21:42.846Z,8.05
2024-01-01T12:24:13.737Z,7.91
2024-01-01T12:26:40.670Z,8.00
2024-01-01T12:29:18.993Z,8.13
2024-01-01T12:31:47.414Z,8.05
2024-01-01T12:34:16.324Z,7.90
2024-01-01T12:36:45.106Z,8.04
2024-01-01T12:39:12.399Z,7.95
2024-01-01T12:41:39.635Z,7.91
2024-01-01T12:44:06.175Z,7.87
2024-01-01T12:46:32.995Z,8.08
2024-01-01T12:49:00.607Z,8.01
2024-01-01T12:51:29.332Z,7.85
2024-01-01T12:53:58.392Z,7.94
2024-01-01T12:56:25.956Z,7.96
2024-01-01T12:58:53.099Z,8.10
2024-01-01T13:01:20.089Z,8.13
2024-01-01T13:03:48.240Z,8.19
2024-01-01T13:06:19.700Z,7.97
2024-01-01T13:08:48.357Z,8.18
2024-01-01T13:11:15.305Z,7.98
2024-01-01T13:13:43.067Z,8.15
2024-01-01T13:16:10.591Z,8.17
2024-01-01T13:18:37.523Z,8.27
2024-01-01T13:21:04.755Z,8.25
2024-01-01T13:23:31.972Z,8.32
2024-01-01T13:26:03.967Z,8.56
2024-01-01T13:28:31.273Z,8.57
2024-01-01T13:30:58.308Z,8.41
2024-01-01T13:33:24.929Z,8.47
2024-01-01T13:35:52.058Z,8.51
2024-01-01T13:38:19.122Z,8.48
2024-01-01T13:40:45.672Z,8.48
2024-01-01T13:43:12.226Z,8.36
2024-01-01T13:45:39.884Z,8.59
2024-01-01T13:48:11.319Z,8.60
2024-01-01T13:50:38.978Z,8.45
2024-01-01T13:53:06.263Z,8.41
2024-01-01T13:55:33.739Z,8.29
2024-01-01T13:58:07.483Z,8.21
2024-01-01T14:00:37.717Z,8.34
2024-01-01T14:03:04.542Z,8.38
2024-01-01T14:05:32.120Z,8.32
2024-01-01T14:07:59.117Z,8.32
2024-01-01T14:10:25.807Z,8.34
2024-01-01T14:12:52.327Z,8.30
2024-01-01T14:15:22.118Z,8.35
2024-01-01T14:17:48.742Z,8.37
2024-01-01T14:20:15.906Z,8.27
2024-01-01T14:22:42.531Z,8.41
2024-01-01T14:25:11.811Z,8.23
2024-01-01T14:27:39.718Z,8.19
2024-01-01T14:30:06.811Z,8.33
2024-01-01T14:32:33.354Z,8.36
2024-01-01T14:34:59.958Z,8.37
2024-01-01T14:37:27.110Z,8.35
2024-01-01T14:39:53.858Z,8.36
2024-01-01T14:42:20.447Z,8.34
2024-01-01T14:44:49.176Z,8.37
2024-01-01T14:47:17.567Z,8.32
2024-01-01T14:49:44.812Z,8.38
2024-01-01T14:52:11.547Z,8.36
2024-01-01T14:54:38.183Z,8.23
2024-01-01T14:57:04.917Z,8.21
2024-01-01T14:59:31.570Z,8.26
2024-01-01T15:02:01.673Z,8.23
2024-01-01T15:04:28.825Z,8.26
2024-01-01T15:06:55.519Z,8.26
2024-01-01T15:09:22.623Z,8.09
2024-01-01T15:11:49.258Z,8.21
2024-01-01T15:14:15.975Z,8.20
2024-01-01T15:16:42.941Z,8.16
2024-01-01T15:19:09.993Z,7.98
2024-01-01T15:21:36.715Z,8.07
2024-01-01T15:24:04.056Z,8.10
2024-01-01T15:26:31.240Z,7.93
2024-01-01T15:28:57.830Z,7.89
2024-01-01T15:31:24.409Z,7.97
2024-01-01T15:33:51.007Z,7.98
2024-01-01T15:36:17.812Z,7.99
2024-01-01T15:38:45.670Z,7.96
2024-01-01T15:41:12.300Z,7.86
2024-01-01T15:43:39.535Z,7.97
2024-01-01T15:46:06.699Z,7.96
2024-01-01T15:48:34.697Z,7.99
2024-01-01T15:51:08.753Z,7.79
2024-01-01T15:53:38.396Z,7.94
2024-01-01T15:56:05.413Z,7.90
2024-01-01T15:58:31.935Z,7.80
2024-01-01T16:00:58.523Z,7.80
2024-01-01T16:03:25.140Z,7.60
2024-01-01T16:05:51.961Z,7.80
2024-01-01T16:08:18.696Z,7.67
2024-01-01T16:10:45.470Z,7.54
2024-01-01T16:13:12.789Z,7.47
2024-01-01T16:15:45.211Z,7.43
2024-01-01T16:18:12.609Z,7.44
2024-01-01T16:20:39.628Z,7.49
2024-01-01T16:23:06.760Z,7.36
2024-01-01T16:25:33.581Z,7.55
2024-01-01T16:28:00.673Z,7.47
2024-01-01T16:30:27.419Z,7.35
2024-01-01T16:32:53.898Z,7.42
2024-01-01T16:35:20.595Z,7.40
2024-01-01T16:37:49.289Z,7.48
2024-01-01T16:40:16.493Z,7.38
2024-01-01T16:42:42.983Z,7.26
2024-01-01T16:45:09.566Z,7.11
2024-01-01T16:47:36.438Z,6.98
2024-01-01T16:50:04.084Z,7.13
2024-01-01T16:52:30.597Z,7.08
2024-01-01T16:54:58.729Z,7.08
2024-01-01T16:57:26.410Z,7.06
2024-01-01T16:59:52.870Z,7.02
2024-01-01T17:02:19.380Z,6.96
2024-01-01T17:04:45.943Z,7.04
2024-01-01T17:07:12.463Z,6.98
2024-01-01T17:09:38.988Z,7.03
2024-01-01T17:12:06.381Z,7.10
2024-01-01T17:14:32.874Z,7.08
2024-01-01T17:17:00.150Z,7.05
2024-01-01T17:19:26.847Z,7.02
2024-01-01T17:21:54.470Z,7.04
2024-01-01T17:24:21.211Z,7.00
2024-01-01T17:26:47.737Z,6.89
2024-01-01T17:29:14.618Z,6.92
2024-01-01T17:31:41.271Z,6.87
2024-01-01T17:34:08.017Z,6.97
2024-01-01T17:36:34.651Z,6.97
2024-01-01T17:39:01.168Z,6.92
2024-01-01T17:41:27.916Z,6.80
2024-01-01T17:43:54.613Z,6.90
2024-01-01T17:46:21.164Z,6.90
2024-01-01T17:48:48.728Z,6.77
2024-01-01T17:51:16.942Z,6.78
2024-01-01T17:53:43.995Z,6.69
2024-01-01T17:56:10.663Z,6.76
2024-01-01T17:58:40.377Z,6.70
2024-01-01T18:01:07.060Z,6.65
2024-01-01T18:03:33.739Z,6.55
2024-01-01T18:06:00.499Z,6.51
2024-01-01T18:08:27.414Z,6.65
2024-01-01T18:10:53.991Z,6.58
2024-01-01T18:13:20.770Z,6.62
2024-01-01T18:15:47.196Z,6.59
2024-01-01T18:18:17.610Z,6.55
2024-01-01T18:20:44.250Z,6.56
2024-01-01T18:23:10.983Z,6.52
2024-01-01T18:25:37.530Z,6.52
2024-01-01T18:28:05.879Z,6.33
2024-01-01T18:30:36.145Z,6.44
2024-01-01T18:33:02.854Z,6.44
2024-01-01T18:35:29.576Z,6.41
2024-01-01T18:37:56.293Z,6.39
2024-01-01T18:40:22.883Z,6.39
2024-01-01T18:42:49.442Z,6.35
2024-01-01T18:45:16.529Z,6.34
2024-01-01T18:47:43.287Z,6.33
2024-01-01T18:50:12.578Z,6.17
2024-01-01T18:52:40.504Z,6.29
2024-01-01T18:55:09.146Z,6.23
2024-01-01T18:57:36.574Z,6.18
2024-01-01T19:00:06.495Z,6.18
2024-01-01T19:02:33.944Z,6.14
2024-01-01T19:05:00.727Z,6.14
2024-01-01T19:07:27.702Z,6.07
2024-01-01T19:09:55.233Z,6.07
2024-01-01T19:12:21.831Z,6.02
2024-01-01T19:14:48.487Z,5.96
2024-01-01T19:17:14.966Z,5.93
2024-01-01T19:19:41.932Z,5.88
2024-01-01T19:22:08.444Z,5.78
2024-01-01T19:24:34.944Z,5.91
2024-01-01T19:27:01.887Z,5.94
2024-01-01T19:29:28.445Z,5.85
2024-01-01T19:31:54.948Z,5.91
2024-01-01T19:34:21.533Z,5.96
2024-01-01T19:36:48.121Z,5.97
2024-01-01T19:39:16.017Z,5.95
2024-01-01T19:41:48.409Z,5.97
2024-01-01T19:44:16.132Z,5.81
2024-01-01T19:46:42.758Z,5.93
2024-01-01T19:49:10.617Z,5.97
2024-01-01T19:51:40.694Z,6.01
2024-01-01T19:54:07.560Z,5.96
2024-01-01T19:56:34.106Z,5.87
2024-01-01T19:59:00.613Z,6.05
2024-01-01T20:01:27.205Z,6.07
2024-01-01T20:03:53.806Z,6.05
2024-01-01T20:06:20.350Z,6.07
2024-01-01T20:08:46.968Z,5.92
2024-01-01T20:11:21.218Z,6.03
2024-01-01T20:13:47.748Z,6.05
2024-01-01T20:16:23.134Z,6.02
2024-01-01T20:18:49.787Z,6.03
2024-01-01T20:21:30.758Z,6.02
2024-01-01T20:24:00.542Z,5.98
2024-01-01T20:26:27.955Z,6.03
2024-01-01T20:28:57.376Z,6.00
2024-01-01T20:31:25.332Z,6.01
2024-01-01T20:33:53.298Z,6.01
2024-01-01T20:36:25.671Z,5.98
2024-01-01T20:38:56.761Z,6.01
2024-01-01T20:41:24.792Z,6.04
2024-01-01T20:43:52.528Z,6.03
2024-01-01T20:46:19.590Z,6.03
2024-01-01T20:48:46.476Z,6.03
2024-01-01T20:51:13.204Z,6.03
2024-01-01T20:53:41.414Z,5.89
2024-01-01T20:56:11.753Z,6.06
2024-01-01T20:58:39.511Z,5.95
2024-01-01T21:01:06.457Z,6.01
2024-01-01T21:03:36.992Z,5.96
2024-01-01T21:06:08.119Z,5.89
2024-01-01T21:08:34.748Z,5.93
2024-01-01T21:11:01.639Z,6.10
2024-01-01T21:13:28.282Z,6.11
2024-01-01T21:15:55.845Z,6.18
2024-01-01T21:18:23.538Z,6.12
2024-01-01T21:20:50.116Z,6.11
2024-01-01T21:23:17.361Z,6.15
2024-01-01T21:25:44.688Z,6.15
2024-01-01T21:28:11.270Z,6.04
2024-01-01T21:30:37.928Z,6.13
2024-01-01T21:33:05.135Z,6.13
2024-01-01T21:35:31.825Z,6.00
2024-01-01T21:38:00.836Z,6.10
2024-01-01T21:40:27.617Z,6.12
2024-01-01T21:42:55.684Z,5.96
2024-01-01T21:45:22.321Z,6.11
2024-01-01T21:47:49.108Z,6.08
2024-01-01T21:50:15.755Z,6.08
2024-01-01T21:52:42.288Z,6.01
2024-01-01T21:55:08.802Z,6.04
2024-01-01T21:57:35.321Z,5.98
2024-01-01T22:00:02.120Z,6.00
2024-01-01T22:02:28.907Z,5.97
2024-01-01T22:04:58.629Z,5.85
2024-01-01T22:07:25.450Z,5.82
2024-01-01T22:09:51.921Z,5.68
2024-01-01T22:12:19.481Z,5.72
2024-01-01T22:14:48.636Z,5.74
2024-01-01T22:17:18.143Z,5.73
2024-01-01T22:19:46.124Z,5.69
2024-01-01T22:22:12.876Z,5.83
2024-01-01T22:24:40.022Z,5.89
2024-01-01T22:27:06.565Z,5.87
2024-01-01T22:29:33.063Z,5.94
2024-01-01T22:31:59.828Z,5.92
2024-01-01T22:34:27.807Z,5.77
2024-01-01T22:36:54.524Z,5.92
2024-01-01T22:39:23.928Z,5.78
2024-01-01T22:41:50.639Z,5.92
2024-01-01T22:44:18.296Z,5.84
2024-01-01T22:46:44.996Z,5.99
2024-01-01T22:49:11.675Z,6.01
2024-01-01T22:51:38.578Z,6.01
2024-01-01T22:54:05.233Z,6.02
2024-01-01T22:56:31.858Z,6.00
2024-01-01T22:58:58.492Z,6.02
2024-01-01T23:01:25.140Z,6.01
2024-01-01T23:03:53.522Z,5.83
2024-01-01T23:06:21.099Z,5.98
2024-01-01T23:08:47.962Z,5.84
2024-01-01T23:11:14.555Z,5.93
2024-01-01T23:13:41.566Z,5.94
2024-01-01T23:16:08.551Z,5.92
2024-01-01T23:18:35.180Z,5.91
2024-01-01T23:21:03.340Z,5.94
2024-01-01T23:23:30.775Z,5.91
2024-01-01T23:25:59.154Z,5.86
2024-01-01T23:28:25.959Z,5.79
2024-01-01T23:30:52.903Z,5.79
2024-01-01T23:33:20.116Z,5.74
2024-01-01T23:35:47.425Z,5.69
2024-01-01T23:38:16.295Z,5.61
2024-01-01T23:40:43.441Z,5.64
2024-01-01T23:43:11.110Z,5.74
2024-01-01T23:45:37.721Z,5.62
2024-01-01T23:48:08.310Z,5.79
2024-01-01T23:50:36.070Z,5.64
2024-01-01T23:53:02.955Z,5.79
2024-01-01T23:55:29.657Z,5.74
2024-01-01T23:57:56.197Z,5.83
